This is the latest recevied weather packets stored in our database for station/object AJ4FJ-13. If no packets are shown the sender has not sent any weather packets the latest 10 day(s).
| Time | Temp. | Humidity | Pressure | Rain* | Wind** | Luminosity | Snow |
|---|---|---|---|---|---|---|---|
| 1777494787 | 28.33° C | 63% | 1013 hPa | 0 mm | 4.02 m/s, 282° | - | - |
| 1777494661 | 28.33° C | 63% | 1013 hPa | 0 mm | 4.02 m/s, 282° | - | - |
| 1777492235 | 28.33° C | 64% | 1014 hPa | 0 mm | 4.92 m/s, 289° | - | - |
| 1777491933 | 28.33° C | 64% | 1014 hPa | 0 mm | 5.36 m/s, 269° | - | - |
| 1777490724 | 27.78° C | 67% | 1014 hPa | 0 mm | 3.13 m/s, 280° | - | - |
| 1777490454 | 27.78° C | 66% | 1014 hPa | 0 mm | 3.58 m/s, 315° | - | - |
| 1777490421 | 27.78° C | 66% | 1014 hPa | 0 mm | 3.58 m/s, 315° | - | - |
| 1777488633 | 28.33° C | 64% | 1014 hPa | 0 mm | 4.47 m/s, 275° | - | - |
| 1777488594 | 28.33° C | 64% | 1014 hPa | 0 mm | 4.47 m/s, 275° | - | - |
| 1777487985 | 28.33° C | 65% | 1014 hPa | 0 mm | 3.58 m/s, 301° | - | - |
| 1777486464 | 27.78° C | 65% | 1015 hPa | 0 mm | 3.58 m/s, 297° | - | - |
| 1777485860 | 27.78° C | 66% | 1015 hPa | 0 mm | 2.24 m/s, 225° | - | - |
| 1777484046 | 27.22° C | 67% | 1015 hPa | 0 mm | 5.36 m/s, 263° | - | - |
| 1777479490 | 26.11° C | 69% | 1015 hPa | 0 mm | 3.13 m/s, 312° | - | - |
| 1777478805 | 25.56° C | 74% | 1015 hPa | 0 mm | 3.13 m/s, 307° | - | - |
| 1777478584 | 25.56° C | 74% | 1015 hPa | 0 mm | 3.13 m/s, 307° | - | - |
| 1777477238 | 24.44° C | 76% | 1015 hPa | 0 mm | 3.13 m/s, 293° | - | - |
| 1777477059 | 24.44° C | 76% | 1015 hPa | 0 mm | 3.13 m/s, 293° | - | - |
| 1777476814 | 23.89° C | 79% | 1015 hPa | 0 mm | 2.68 m/s, 282° | - | - |
| 1777476757 | 23.89° C | 79% | 1015 hPa | 0 mm | 2.68 m/s, 282° | - | - |
| 1777476153 | 23.33° C | 78% | 1015 hPa | 0 mm | 2.24 m/s, 292° | - | - |
| 1777475851 | 23.33° C | 78% | 1015 hPa | 0 mm | 3.58 m/s, 276° | - | - |
| 1777475549 | 23.33° C | 79% | 1015 hPa | 0 mm | 3.13 m/s, 251° | - | - |
| 1777474030 | 22.22° C | 82% | 1015 hPa | 0 mm | 2.24 m/s, 336° | - | - |
| 1777472220 | 22.78° C | 86% | 1014 hPa | 0 mm | 2.68 m/s, 313° | - | - |
* Rain latest hour (hover to see other rain measurements)
** Current wind speed in m/s (hover to see current wind gust speed)